Wetterstation Vordersexau
Wetterdaten: April 2013
Datum Temp. A. Feuchte A. Luftdruck Regen Wind Richtung Taupunkt Windchill Windben
01.04.2013 5,4 C 63 % 1003,3 hPa 0,0 l/m 1,0 km/h SO -1,9 C 5,2 C 0,6 km/h
02.04.2013 5,4 C 64 % 1003,0 hPa 0,0 l/m 1,4 km/h SO -1,4 C 5,1 C 0,8 km/h
03.04.2013 4,3 C 70 % 1006,9 hPa 0,0 l/m 0,8 km/h SO -0,8 C 4,3 C 0,4 km/h
04.04.2013 6,4 C 66 % 1003,5 hPa 0,0 l/m 2,2 km/h SO -0,0 C 6,0 C 1,2 km/h
05.04.2013 5,6 C 69 % 1002,8 hPa 0,0 l/m 0,7 km/h N-NO 0,0 C 5,6 C 0,4 km/h
06.04.2013 5,3 C 72 % 1012,2 hPa 0,0 l/m 2,6 km/h N-NW 0,6 C 4,6 C 1,4 km/h
07.04.2013 6,6 C 64 % 1015,4 hPa 0,0 l/m 0,6 km/h O-SO -0,1 C 6,6 C 0,3 km/h
08.04.2013 4,9 C 74 % 1004,8 hPa 0,0 l/m 4,7 km/h W-NW 0,4 C 3,8 C 2,6 km/h
09.04.2013 8,1 C 78 % 1001,9 hPa 4,7 l/m 9,1 km/h W 4,5 C 5,4 C 5,1 km/h
10.04.2013 10,6 C 70 % 1007,1 hPa 0,5 l/m 26,1 km/h NW 5,1 C 3,2 C 14,5 km/h
11.04.2013 12,0 C 82 % 1003,6 hPa 11,4 l/m 11,6 km/h W-NW 9,1 C 9,3 C 6,4 km/h
12.04.2013 10,9 C 75 % 1006,2 hPa 4,7 l/m 26,8 km/h NW 6,6 C 3,0 C 14,9 km/h
13.04.2013 12,0 C 67 % 1017,7 hPa 0,0 l/m 17,3 km/h NW 5,6 C 7,4 C 9,6 km/h
14.04.2013 18,2 C 57 % 1021,3 hPa 0,0 l/m 3,5 km/h O-SO 8,2 C 17,9 C 2,0 km/h
15.04.2013 18,5 C 55 % 1018,2 hPa 0,0 l/m 6,0 km/h SO 8,2 C 17,8 C 3,3 km/h
16.04.2013 18,1 C 64 % 1018,4 hPa 0,0 l/m 0,8 km/h S 10,6 C 18,1 C 0,5 km/h
17.04.2013 19,6 C 61 % 1019,6 hPa 0,0 l/m 2,7 km/h N 10,9 C 19,4 C 1,5 km/h
18.04.2013 17,3 C 65 % 1016,6 hPa 0,0 l/m 11,0 km/h S 10,1 C 15,8 C 6,1 km/h
19.04.2013 11,3 C 65 % 1021,1 hPa 0,5 l/m 2,4 km/h O-SO 4,8 C 10,8 C 1,3 km/h
20.04.2013 7,7 C 79 % 1019,6 hPa 1,0 l/m 1,8 km/h O-SO 4,2 C 7,4 C 1,0 km/h
21.04.2013 10,5 C 76 % 1016,1 hPa 0,0 l/m 1,8 km/h N 6,4 C 10,4 C 1,0 km/h
22.04.2013 11,2 C 76 % 1015,5 hPa 0,0 l/m 1,2 km/h S-SO 7,0 C 11,0 C 0,7 km/h
23.04.2013 14,9 C 62 % 1019,7 hPa 0,0 l/m 4,7 km/h S 6,6 C 14,3 C 2,6 km/h
24.04.2013 16,6 C 57 % 1023,7 hPa 0,0 l/m 2,3 km/h SO 6,6 C 16,5 C 1,3 km/h
25.04.2013 19,2 C 54 % 1021,2 hPa 0,0 l/m 1,2 km/h SO 8,0 C 19,2 C 0,6 km/h
26.04.2013 15,4 C 71 % 1010,4 hPa 6,7 l/m 4,2 km/h S-SW 9,8 C 14,8 C 2,3 km/h
27.04.2013 8,8 C 81 % 1003,9 hPa 26,4 l/m 0,7 km/h O-SO 5,7 C 8,8 C 0,4 km/h
28.04.2013 8,8 C 77 % 1011,8 hPa 0,5 l/m 0,8 km/h O-SO 4,9 C 8,8 C 0,4 km/h
29.04.2013 10,1 C 81 % 1016,0 hPa 2,1 l/m 0,6 km/h N 7,0 C 10,1 C 0,3 km/h
30.04.2013 11,3 C 78 % 1015,8 hPa 0,0 l/m 0,8 km/h N 7,7 C 11,3 C 0,5 km/h
Min-Datum 01.04.13 25.04.13 05.04.13 10 Tage 01.04.13 - 02.04.13 01.04.13 01.04.13
Min-Zeit 06:19 18:19 05:19 - 00:19 - 02:19 01:19 00:19
Minimum -3,4 C 22 % 1000,3 hPa - 0,0 km/h - -5,7 C -4,8 C 0,0 km/h
Max-Datum 25.04.13 01.04.13 24.04.13 27.04.13 10.04.13 - 17.04.13 25.04.13 10.04.13
Max-Zeit 17:19 01:19 10:19 01:19 15:19 - 16:19 17:19 15:19
Maximum 34,1 C 86 % 1025,2 hPa 26,4 l/m 49,9 km/h
NW
- 13,9 C 34,1 C 27,7 km/h
NW
Durchschnitt 11,2 C 69 % 1012,6 hPa #58,5 l/m 5,0 km/h O-SO 5,1 C 10,1 C 2,8 km/h

Durchschnitt Minimum Temp.5,4 C
Durchschnitt Maximum Temp.19,0 C
www.sexauwetter.de